Time;durP1;ratioP1;P1;durP2;ratioP2;P2;SDS_P1;SDS_P2;PMS_P1;PMS_P2;Temp;Humidity;BMP_temperature;BMP_pressure;BME280_temperature;BME280_humidity;BME280_pressure;Samples;Min_cycle;Max_cycle;Signal;HPM_P1;HPM_P2
2022/06/20 00:01:22;;;;;;;14.18;3.10;;;;;;;15.62;68.75;101118.34;3568177;40;20060;-64
2022/06/20 00:03:48;;;;;;;11.77;3.00;;;;;;;15.58;68.89;101116.88;3568270;40;20102;-64
2022/06/20 00:06:20;;;;;;;10.30;2.63;;;;;;;15.60;68.68;101104.91;3567166;40;20072;-64
2022/06/20 00:08:49;;;;;;;10.35;2.60;;;;;;;15.51;68.86;101102.94;3565954;40;20412;-64
2022/06/20 00:11:30;;;;;;;10.90;2.80;;;;;;;15.48;68.48;101104.03;3566500;40;20057;-64
2022/06/20 00:13:56;;;;;;;9.63;2.65;;;;;;;15.49;69.02;101115.72;3566630;40;20388;-64
2022/06/20 00:16:24;;;;;;;12.07;2.60;;;;;;;15.45;67.98;101123.25;3565150;40;20049;-64
2022/06/20 00:18:51;;;;;;;11.40;3.08;;;;;;;15.40;68.74;101120.00;3566956;40;20184;-64
2022/06/20 00:21:22;;;;;;;9.48;2.70;;;;;;;15.28;68.80;101120.94;3569759;40;20075;-64
2022/06/20 00:23:48;;;;;;;8.75;2.70;;;;;;;15.40;68.74;101151.66;3569696;40;20052;-64
2022/06/20 00:26:16;;;;;;;7.70;2.20;;;;;;;15.46;68.76;101186.41;3564270;40;20145;-64
2022/06/20 00:28:43;;;;;;;10.00;3.08;;;;;;;15.44;68.93;101181.09;3568620;40;20278;-64
2022/06/20 00:31:09;;;;;;;8.18;2.45;;;;;;;15.35;68.65;101171.00;3569390;40;20063;-64
2022/06/20 00:33:35;;;;;;;9.45;2.55;;;;;;;15.45;68.43;101193.69;3567531;40;20296;-64
2022/06/20 00:36:01;;;;;;;12.05;2.95;;;;;;;15.45;68.90;101207.22;3567725;40;20088;-64
2022/06/20 00:38:27;;;;;;;10.43;2.63;;;;;;;15.49;69.81;101218.69;3567285;40;20053;-64
2022/06/20 00:40:59;;;;;;;9.93;2.50;;;;;;;15.48;69.29;101231.38;3568095;40;20356;-64
2022/06/20 00:43:40;;;;;;;7.60;2.55;;;;;;;15.50;69.75;101252.91;3565754;40;20403;-64
2022/06/20 00:46:42;;;;;;;10.52;3.20;;;;;;;15.49;69.21;101310.81;3567965;40;20057;-64
2022/06/20 00:49:29;;;;;;;12.10;2.60;;;;;;;15.49;69.32;101341.47;3567507;40;20068;-63
2022/06/20 00:52:10;;;;;;;12.10;2.45;;;;;;;15.50;69.03;101372.13;3566802;40;20076;-64
2022/06/20 00:54:41;;;;;;;11.85;3.67;;;;;;;15.47;69.91;101397.59;3568717;40;20078;-64
2022/06/20 00:57:41;;;;;;;7.20;2.40;;;;;;;15.27;70.46;101336.78;3571191;40;20048;-64
2022/06/20 01:00:12;;;;;;;9.88;2.47;;;;;;;15.50;71.81;101340.47;3567268;40;20056;-64
2022/06/20 01:02:45;;;;;;;12.20;3.15;;;;;;;15.46;70.52;101314.59;3566897;40;20069;-64
2022/06/20 01:05:27;;;;;;;8.75;2.72;;;;;;;15.45;71.10;101285.78;3571788;40;20120;-64
2022/06/20 01:08:07;;;;;;;10.45;2.65;;;;;;;15.46;70.85;101303.78;3565484;40;20092;-63
2022/06/20 01:10:45;;;;;;;14.77;2.92;;;;;;;15.49;71.05;101276.44;3569387;40;20053;-64
2022/06/20 01:13:18;;;;;;;12.32;3.15;;;;;;;15.53;71.32;101269.81;3568429;40;20068;-64
2022/06/20 01:15:48;;;;;;;9.63;2.40;;;;;;;15.51;71.48;101262.81;3570908;40;20320;-64
2022/06/20 01:18:25;;;;;;;13.00;2.97;;;;;;;15.45;72.08;101247.88;3567935;40;20093;-63
2022/06/20 01:20:55;;;;;;;11.32;3.15;;;;;;;15.33;71.47;101240.66;3574333;40;20383;-64
2022/06/20 01:23:35;;;;;;;9.65;2.85;;;;;;;15.25;72.61;101229.53;3570172;40;20049;-63
2022/06/20 01:26:47;;;;;;;10.77;2.72;;;;;;;15.20;73.10;101223.59;3567413;40;20067;-64
2022/06/20 01:29:13;;;;;;;12.65;2.95;;;;;;;15.17;73.71;101215.72;3564192;40;20363;-63
2022/06/20 01:31:47;;;;;;;10.75;2.60;;;;;;;15.18;74.09;101209.31;3565786;40;20538;-63
2022/06/20 01:34:18;;;;;;;13.25;2.67;;;;;;;15.20;74.14;101204.66;3568214;40;20167;-64
2022/06/20 01:39:39;;;;;;;10.20;2.78;;;;;;;15.24;74.25;101201.56;3571293;40;20363;-64
2022/06/20 01:42:20;;;;;;;6.50;2.92;;;;;;;15.23;73.74;101189.03;3566369;40;20056;-64
2022/06/20 01:48:07;;;;;;;9.02;2.45;;;;;;;14.97;73.13;101134.13;3572009;40;20122;-64
2022/06/20 01:50:36;;;;;;;9.18;2.95;;;;;;;15.14;73.62;101178.88;3573634;40;20056;-64
2022/06/20 01:53:06;;;;;;;15.80;3.35;;;;;;;15.11;72.81;101172.84;3569988;40;20056;-64
2022/06/20 01:55:35;;;;;;;9.73;3.00;;;;;;;15.00;73.19;101163.69;3572613;40;20435;-64
2022/06/20 01:58:33;;;;;;;6.38;2.53;;;;;;;14.98;72.65;101167.47;3572001;40;20130;-64
2022/06/20 02:01:02;;;;;;;7.22;2.85;;;;;;;14.98;72.43;101168.34;3569998;40;20100;-64
2022/06/20 02:03:34;;;;;;;10.63;2.67;;;;;;;14.97;72.40;101165.72;3569737;40;20376;-64
2022/06/20 02:06:01;;;;;;;12.48;2.80;;;;;;;14.94;71.75;101156.03;3572605;40;20110;-64
2022/06/20 02:08:27;;;;;;;10.52;2.92;;;;;;;14.92;71.72;101149.84;3572540;40;20395;-64
2022/06/20 02:11:18;;;;;;;12.60;2.67;;;;;;;14.90;71.58;101140.97;3571496;40;20340;-64
2022/06/20 02:13:51;;;;;;;9.55;2.45;;;;;;;14.88;70.84;101140.25;3571345;40;20048;-64
2022/06/20 02:16:22;;;;;;;9.88;2.45;;;;;;;14.84;70.06;101144.13;3571353;40;20122;-64
2022/06/20 02:18:53;;;;;;;9.80;2.35;;;;;;;14.80;70.77;101121.84;3572318;40;20057;-64
2022/06/20 02:21:30;;;;;;;8.70;2.83;;;;;;;14.77;70.41;101115.81;3571859;40;20069;-64
2022/06/20 02:24:04;;;;;;;9.15;2.40;;;;;;;14.81;70.40;101130.81;3570652;40;20736;-64
2022/06/20 02:26:36;;;;;;;8.68;2.45;;;;;;;14.73;70.04;101112.47;3568743;40;20420;-64
2022/06/20 02:29:23;;;;;;;8.55;2.22;;;;;;;14.74;70.25;101116.91;3570802;40;20418;-64
2022/06/20 02:31:57;;;;;;;11.52;2.53;;;;;;;14.71;69.95;101116.25;3571519;40;20126;-65
2022/06/20 02:34:26;;;;;;;;;;;;;;;14.68;70.33;101122.75;3572796;40;20049;-63
2022/06/20 02:36:54;;;;;;;5.90;2.05;;;;;;;14.39;69.60;101065.38;3573978;40;20489;-64
2022/06/20 02:39:21;;;;;;;10.38;2.42;;;;;;;14.66;69.91;101118.47;3571318;40;20390;-64
2022/06/20 02:41:55;;;;;;;5.45;2.35;;;;;;;14.67;69.70;101120.19;3573280;40;20453;-64
2022/06/20 02:44:24;;;;;;;11.80;2.33;;;;;;;14.69;69.58;101116.41;3571654;40;20439;-64
2022/06/20 02:46:53;;;;;;;11.25;2.30;;;;;;;14.71;69.30;101113.56;3576615;40;20060;-64
2022/06/20 02:49:26;;;;;;;8.07;2.05;;;;;;;14.69;69.31;101102.88;3572013;40;20057;-64
2022/06/20 02:51:57;;;;;;;10.95;2.38;;;;;;;14.67;69.22;101098.53;3563029;40;20052;-64
2022/06/20 02:54:29;;;;;;;9.80;2.60;;;;;;;14.65;69.45;101087.81;3571930;40;20049;-64
2022/06/20 02:57:07;;;;;;;9.43;2.25;;;;;;;14.63;69.40;101082.53;3570930;40;20310;-64
2022/06/20 02:59:47;;;;;;;6.78;2.20;;;;;;;14.60;69.42;101077.34;3569919;40;20410;-64
2022/06/20 03:02:19;;;;;;;9.32;2.30;;;;;;;14.58;69.57;101068.47;3573621;40;20057;-64
2022/06/20 03:04:46;;;;;;;8.35;2.28;;;;;;;14.53;69.35;101067.97;3572588;40;20053;-64
2022/06/20 03:07:25;;;;;;;7.75;2.72;;;;;;;14.40;69.39;101042.78;3570740;40;20100;-64
2022/06/20 03:10:01;;;;;;;7.82;2.38;;;;;;;14.52;69.04;101085.16;3571901;40;20052;-64
2022/06/20 03:12:27;;;;;;;11.60;2.72;;;;;;;14.53;69.37;101084.19;3572314;40;20053;-64
2022/06/20 03:15:00;;;;;;;11.77;2.08;;;;;;;14.56;68.61;101085.81;3571426;40;20044;-63
2022/06/20 03:17:27;;;;;;;7.30;2.05;;;;;;;14.58;69.11;101089.25;3570319;40;20307;-64
2022/06/20 03:20:02;;;;;;;9.52;2.50;;;;;;;14.63;69.01;101087.94;3571705;40;20049;-64
2022/06/20 03:22:38;;;;;;;6.50;2.15;;;;;;;14.63;68.38;101097.91;3569112;40;20126;-64
2022/06/20 03:25:09;;;;;;;8.25;2.00;;;;;;;14.63;68.71;101103.31;3568834;40;20303;-64
2022/06/20 03:27:37;;;;;;;11.35;2.15;;;;;;;14.51;68.55;101094.25;3574235;40;20065;-64
2022/06/20 03:30:31;;;;;;;10.27;2.63;;;;;;;14.61;68.43;101106.13;3570362;40;21128;-64
2022/06/20 03:33:01;;;;;;;7.53;2.17;;;;;;;14.59;68.94;101099.97;3571206;40;20126;-64
2022/06/20 03:35:30;;;;;;;7.07;2.17;;;;;;;14.57;68.16;101110.03;3570765;40;20350;-64
2022/06/20 03:38:05;;;;;;;9.07;2.63;;;;;;;14.58;68.70;101132.53;3571401;40;20055;-65
2022/06/20 03:40:33;;;;;;;8.07;2.22;;;;;;;14.57;68.56;101134.41;3570293;40;20370;-64
2022/06/20 03:43:01;;;;;;;7.43;2.60;;;;;;;14.61;68.32;101153.97;3572717;40;20052;-64
2022/06/20 03:45:34;;;;;;;10.02;2.38;;;;;;;14.62;68.71;101147.59;3574614;40;20064;-63
2022/06/20 03:48:19;;;;;;;8.77;2.22;;;;;;;14.71;68.47;101151.44;3568846;40;20089;-64
2022/06/20 03:51:18;;;;;;;8.80;2.20;;;;;;;14.80;68.58;101167.00;3571314;40;20056;-64
2022/06/20 03:54:07;;;;;;;6.18;1.98;;;;;;;14.81;68.44;101176.84;3569417;40;20068;-64
2022/06/20 03:56:53;;;;;;;8.85;2.20;;;;;;;14.61;67.82;101146.72;3568640;40;20720;-64
2022/06/20 03:59:38;;;;;;;5.18;1.70;;;;;;;14.87;68.14;101173.69;3569772;40;20044;-63
2022/06/20 04:02:35;;;;;;;8.10;2.45;;;;;;;14.83;68.27;101178.47;3570219;40;20417;-63
2022/06/20 04:05:22;;;;;;;5.47;2.30;;;;;;;14.88;68.25;101183.56;3567804;40;20455;-63
2022/06/20 04:08:14;;;;;;;8.82;2.28;;;;;;;14.96;68.27;101178.41;3572037;40;20400;-64
2022/06/20 04:11:01;;;;;;;6.95;2.17;;;;;;;15.00;68.15;101182.63;3572182;40;20367;-64
2022/06/20 04:13:52;;;;;;;8.95;2.40;;;;;;;15.03;68.06;101177.00;3572080;40;20092;-63
2022/06/20 04:16:41;;;;;;;11.70;2.53;;;;;;;15.04;67.85;101181.44;3571211;40;20065;-64
2022/06/20 04:19:21;;;;;;;5.57;1.65;;;;;;;15.07;68.53;101189.31;3570029;40;20390;-64
2022/06/20 04:22:08;;;;;;;5.82;2.40;;;;;;;15.09;68.41;101203.59;3573557;40;20056;-64
2022/06/20 04:25:04;;;;;;;6.97;1.80;;;;;;;15.16;68.48;101208.53;3558191;40;20068;-63
2022/06/20 04:27:43;;;;;;;7.10;2.10;;;;;;;15.09;69.03;101186.47;3569073;40;20454;-64
2022/06/20 04:30:24;;;;;;;13.35;2.42;;;;;;;15.17;69.47;101200.31;3570815;40;20048;-64
2022/06/20 04:33:06;;;;;;;10.85;2.53;;;;;;;15.13;69.10;101209.66;3568310;40;20098;-63
2022/06/20 04:35:49;;;;;;;6.93;1.95;;;;;;;15.14;69.76;101221.34;3572197;40;20416;-64
2022/06/20 04:38:33;;;;;;;9.80;2.47;;;;;;;15.12;70.37;101223.31;3574531;40;20142;-64
2022/06/20 04:41:10;;;;;;;15.57;2.40;;;;;;;15.13;69.91;101219.59;3570050;40;20066;-63
2022/06/20 04:43:56;;;;;;;5.97;1.73;;;;;;;15.12;70.22;101207.06;3571141;40;20055;-63
2022/06/20 04:46:45;;;;;;;5.40;2.03;;;;;;;15.05;70.47;101206.66;3570696;40;20087;-64
2022/06/20 04:49:15;;;;;;;10.18;2.33;;;;;;;15.14;70.46;101232.19;3570202;40;20065;-63
2022/06/20 04:51:47;;;;;;;4.97;1.98;;;;;;;15.18;70.79;101239.94;3569289;40;20482;-63
2022/06/20 04:54:20;;;;;;;7.28;2.63;;;;;;;15.22;71.18;101240.59;3571121;40;20171;-63
2022/06/20 04:56:51;;;;;;;9.25;2.33;;;;;;;15.28;71.06;101232.00;3569412;40;20084;-63
2022/06/20 04:59:26;;;;;;;6.55;2.28;;;;;;;15.33;71.09;101238.81;3568078;40;20127;-63
2022/06/20 05:01:59;;;;;;;8.65;2.40;;;;;;;15.40;70.08;101238.34;3568831;40;20045;-63
2022/06/20 05:04:37;;;;;;;8.20;2.45;;;;;;;15.41;71.21;101242.78;3570414;40;20045;-62
2022/06/20 05:07:16;;;;;;;8.52;2.17;;;;;;;15.42;70.73;101239.09;3568054;40;20072;-63
2022/06/20 05:10:14;;;;;;;9.73;2.50;;;;;;;15.49;70.34;101243.06;3570310;40;20069;-63
2022/06/20 05:12:54;;;;;;;8.40;2.22;;;;;;;15.41;70.07;101223.81;3568805;40;20045;-63
2022/06/20 05:15:44;;;;;;;9.38;2.45;;;;;;;15.58;70.27;101241.53;3557236;40;20048;-63
2022/06/20 05:18:40;;;;;;;11.20;2.40;;;;;;;15.62;70.19;101243.84;3570818;40;20110;-63
2022/06/20 05:21:24;;;;;;;7.65;2.40;;;;;;;15.64;70.49;101251.88;3569399;40;20337;-63
2022/06/20 05:23:57;;;;;;;7.40;2.90;;;;;;;15.66;71.12;101261.59;3569111;40;20048;-63
2022/06/20 05:26:31;;;;;;;8.38;2.58;;;;;;;15.64;70.18;101262.72;3570718;40;20057;-63
2022/06/20 05:29:06;;;;;;;9.82;2.50;;;;;;;15.66;70.83;101260.75;3570365;40;20293;-63
2022/06/20 05:31:40;;;;;;;12.15;2.95;;;;;;;15.70;69.92;101257.75;3571051;40;20064;-63
2022/06/20 05:34:49;;;;;;;7.75;2.60;;;;;;;15.76;70.24;101256.38;3570454;40;20065;-63
2022/06/20 05:37:46;;;;;;;6.45;2.60;;;;;;;15.78;70.18;101252.56;3571377;40;20079;-63
2022/06/20 05:40:26;;;;;;;13.15;3.22;;;;;;;15.84;69.95;101243.09;3570665;40;20069;-63
2022/06/20 05:42:52;;;;;;;10.38;2.45;;;;;;;15.84;69.57;101237.69;3576257;40;20063;-63
2022/06/20 05:45:22;;;;;;;9.52;2.78;;;;;;;15.76;70.44;101218.44;3574724;40;20049;-63
2022/06/20 05:48:01;;;;;;;7.88;2.22;;;;;;;15.81;70.01;101237.94;3572893;40;20159;-62
2022/06/20 05:50:57;;;;;;;13.13;2.88;;;;;;;15.81;69.98;101245.19;3570741;40;20058;-63
2022/06/20 05:53:32;;;;;;;11.18;2.60;;;;;;;15.80;69.34;101248.91;3576003;40;20053;-63
2022/06/20 05:56:05;;;;;;;10.00;3.00;;;;;;;15.78;70.77;101254.41;3567785;40;20096;-62
2022/06/20 05:58:37;;;;;;;10.38;3.00;;;;;;;15.82;70.40;101260.47;3576818;40;20093;-63
2022/06/20 06:01:15;;;;;;;10.27;3.50;;;;;;;15.88;69.79;101260.84;3573736;40;20041;-63
2022/06/20 06:04:24;;;;;;;8.48;3.03;;;;;;;15.91;69.24;101255.19;3572087;40;20053;-63
2022/06/20 06:07:00;;;;;;;5.85;2.40;;;;;;;15.97;68.73;101256.56;3570984;40;20386;-63
2022/06/20 06:09:40;;;;;;;5.85;2.33;;;;;;;16.01;68.13;101261.63;3569680;40;20384;-63
2022/06/20 06:12:22;;;;;;;8.63;2.40;;;;;;;15.82;68.18;101208.97;3576616;40;20051;-63
2022/06/20 06:15:00;;;;;;;10.25;2.65;;;;;;;16.15;67.64;101257.00;3569694;40;20045;-63
2022/06/20 06:17:43;;;;;;;10.30;2.65;;;;;;;16.19;67.92;101258.47;3572642;40;20049;-63
2022/06/20 06:20:32;;;;;;;7.22;3.10;;;;;;;16.25;67.36;101267.00;3575683;40;20130;-63
2022/06/20 06:23:06;;;;;;;14.00;2.85;;;;;;;16.30;66.73;101263.94;3572927;40;20099;-63
2022/06/20 06:25:37;;;;;;;9.48;3.17;;;;;;;16.41;66.10;101266.66;3567709;40;20127;-63
2022/06/20 06:28:12;;;;;;;7.32;2.75;;;;;;;16.50;65.92;101269.63;3575616;40;20048;-63
2022/06/20 06:30:49;;;;;;;6.65;1.95;;;;;;;16.57;64.20;101279.00;3570132;40;20057;-63
2022/06/20 06:33:45;;;;;;;7.25;2.45;;;;;;;16.59;64.58;101271.59;3570739;40;20071;-63
2022/06/20 06:36:28;;;;;;;5.97;2.70;;;;;;;16.59;64.18;101274.31;3573838;40;20052;-63
2022/06/20 06:39:20;;;;;;;;;;;;;;;16.60;63.47;101268.75;3570969;40;20080;-63
2022/06/20 06:41:53;;;;;;;7.18;1.90;;;;;;;16.59;63.03;101274.31;3572825;40;19929;-63
2022/06/20 06:44:32;;;;;;;5.18;1.90;;;;;;;16.58;62.72;101283.44;3567312;40;20701;-63
2022/06/20 06:47:00;;;;;;;8.30;2.42;;;;;;;16.60;62.94;101295.91;3571602;40;20151;-63
2022/06/20 06:49:37;;;;;;;6.13;1.60;;;;;;;16.69;62.00;101292.44;3572874;40;20121;-63
2022/06/20 06:52:19;;;;;;;10.10;2.10;;;;;;;16.86;62.80;101295.69;3572125;40;20110;-63
2022/06/20 06:54:59;;;;;;;4.82;2.08;;;;;;;17.13;61.32;101303.47;3575975;40;20090;-63
2022/06/20 06:57:41;;;;;;;7.72;2.28;;;;;;;17.38;62.34;101300.44;3576614;40;20063;-63
2022/06/20 07:00:06;;;;;;;4.80;2.22;;;;;;;17.46;59.41;101298.94;3572057;40;20056;-63
2022/06/20 07:02:43;;;;;;;7.72;2.50;;;;;;;17.57;59.25;101305.22;3573872;40;20048;-63
2022/06/20 07:05:37;;;;;;;5.53;2.10;;;;;;;17.24;58.40;101202.88;3572282;40;20064;-63
2022/06/20 07:08:14;;;;;;;;;;;;;;;18.18;58.90;101304.59;3572639;40;20122;-63
2022/06/20 07:10:56;;;;;;;5.78;1.95;;;;;;;18.47;57.51;101304.78;3571954;40;19944;-63
2022/06/20 07:13:32;;;;;;;6.22;2.08;;;;;;;18.54;55.65;101318.72;3575305;40;20048;-63
2022/06/20 07:16:02;;;;;;;4.45;1.77;;;;;;;18.46;55.86;101321.25;3569564;40;20048;-63
2022/06/20 07:18:46;;;;;;;5.65;1.70;;;;;;;18.26;54.80;101320.25;3571924;40;20461;-63
2022/06/20 07:21:18;;;;;;;6.43;2.03;;;;;;;18.06;54.96;101321.97;3571771;40;20057;-63
2022/06/20 07:23:54;;;;;;;6.40;2.10;;;;;;;17.88;56.45;101326.25;3572589;40;20059;-63
2022/06/20 07:26:23;;;;;;;6.15;1.92;;;;;;;17.66;57.36;101329.88;3571416;40;20052;-63
2022/06/20 07:28:57;;;;;;;8.65;2.20;;;;;;;17.50;58.08;101331.16;3569591;40;20087;-63
2022/06/20 07:31:42;;;;;;;7.35;2.13;;;;;;;17.33;57.73;101318.97;3568063;40;20431;-63
2022/06/20 07:34:25;;;;;;;8.38;2.17;;;;;;;17.36;58.33;101320.56;3567560;40;20666;-63
2022/06/20 07:37:00;;;;;;;5.13;2.05;;;;;;;17.66;58.26;101325.31;3568631;40;20131;-63
2022/06/20 07:39:46;;;;;;;4.53;2.05;;;;;;;17.87;56.35;101322.66;3568601;40;20070;-63
2022/06/20 07:42:28;;;;;;;5.95;1.85;;;;;;;18.09;56.79;101324.44;3565891;40;20056;-63
2022/06/20 07:45:19;;;;;;;6.38;2.17;;;;;;;18.51;56.57;101324.44;3569731;40;20064;-63
2022/06/20 07:47:49;;;;;;;6.65;2.00;;;;;;;18.82;54.43;101321.75;3566600;40;20064;-63
2022/06/20 07:50:29;;;;;;;5.82;2.08;;;;;;;19.05;52.67;101327.88;3564395;40;20085;-63
2022/06/20 07:53:09;;;;;;;5.65;1.95;;;;;;;19.01;52.96;101327.28;3565301;40;20122;-62
2022/06/20 07:55:43;;;;;;;4.80;1.58;;;;;;;18.74;51.74;101306.09;3565665;40;20061;-65
2022/06/20 07:58:26;;;;;;;4.45;1.63;;;;;;;18.75;50.79;101338.66;3567763;40;20307;-66
2022/06/20 08:00:54;;;;;;;5.20;1.63;;;;;;;18.59;50.98;101332.81;3567605;40;20059;-65
2022/06/20 08:03:36;;;;;;;5.45;1.92;;;;;;;18.43;49.47;101340.59;3567679;40;20061;-66
2022/06/20 08:06:32;;;;;;;5.63;1.88;;;;;;;18.40;50.37;101338.13;3567445;40;20080;-65
2022/06/20 08:09:22;;;;;;;6.15;1.77;;;;;;;18.38;50.00;101348.28;3569689;40;20056;-65
2022/06/20 08:12:02;;;;;;;5.22;1.83;;;;;;;18.74;50.41;101331.47;3567736;40;20052;-64
2022/06/20 08:14:58;;;;;;;6.47;1.63;;;;;;;19.49;47.88;101342.94;3565727;40;20053;-65
2022/06/20 08:17:28;;;;;;;6.43;1.70;;;;;;;20.09;46.46;101341.00;3566775;40;20063;-63
2022/06/20 08:19:57;;;;;;;4.95;2.05;;;;;;;20.53;47.20;101343.31;3569749;40;20057;-63
2022/06/20 08:22:42;;;;;;;8.55;2.30;;;;;;;20.97;46.20;101347.19;3565053;40;20079;-62
2022/06/20 08:25:31;;;;;;;6.68;2.25;;;;;;;20.86;45.80;101342.75;3568331;40;20307;-63
2022/06/20 08:28:11;;;;;;;8.23;2.40;;;;;;;20.70;46.50;101355.31;3566642;40;20380;-63
2022/06/20 08:30:52;;;;;;;6.15;1.77;;;;;;;20.57;48.47;101348.31;3569620;40;20053;-63
2022/06/20 08:33:29;;;;;;;7.05;2.25;;;;;;;20.47;47.97;101347.44;3566426;40;20055;-63
2022/06/20 08:36:12;;;;;;;8.07;2.20;;;;;;;20.21;46.55;101349.06;3570593;40;20115;-63
2022/06/20 08:38:52;;;;;;;6.82;2.15;;;;;;;19.86;46.48;101350.50;3569225;40;20041;-64
2022/06/20 08:42:02;;;;;;;5.45;2.15;;;;;;;19.58;47.68;101360.31;3566116;40;20052;-64
2022/06/20 08:45:04;;;;;;;4.05;1.75;;;;;;;19.66;48.17;101361.38;3573587;40;20064;-64
2022/06/20 08:47:38;;;;;;;8.30;2.30;;;;;;;20.32;46.94;101363.41;3570620;40;20049;-64
2022/06/20 08:50:28;;;;;;;4.38;1.80;;;;;;;20.85;44.75;101364.78;3568882;40;21812;-65
2022/06/20 08:53:21;;;;;;;4.05;1.77;;;;;;;21.48;42.17;101367.69;3574575;40;20130;-64
2022/06/20 08:56:35;;;;;;;4.20;1.85;;;;;;;21.66;41.06;101364.13;3569515;40;20053;-64
2022/06/20 08:59:32;;;;;;;6.07;2.00;;;;;;;21.36;43.88;101374.38;3551066;40;20065;-64
2022/06/20 09:02:26;;;;;;;4.63;2.60;;;;;;;20.99;45.03;101377.94;3548355;40;20061;-64
2022/06/20 09:05:32;;;;;;;6.63;2.30;;;;;;;20.65;45.74;101391.31;3569176;40;20126;-64
2022/06/20 09:08:24;;;;;;;6.55;2.75;;;;;;;20.28;46.02;101382.97;3568234;40;20052;-64
2022/06/20 09:11:30;;;;;;;7.80;2.03;;;;;;;20.08;44.44;101393.03;3571968;40;20095;-64
2022/06/20 09:14:22;;;;;;;3.63;1.52;;;;;;;20.49;45.41;101388.25;3566088;40;20059;-64
2022/06/20 09:17:02;;;;;;;6.88;2.30;;;;;;;21.09;43.61;101392.47;3572062;40;20071;-64
2022/06/20 09:19:58;;;;;;;7.15;2.10;;;;;;;21.63;42.89;101394.53;3569101;40;20061;-64
2022/06/20 09:23:28;;;;;;;3.75;1.83;;;;;;;22.32;40.91;101391.16;3571081;40;20056;-64
2022/06/20 09:26:30;;;;;;;4.10;2.00;;;;;;;22.46;39.45;101382.41;3571899;40;20052;-65
2022/06/20 09:29:36;;;;;;;5.35;2.20;;;;;;;22.31;40.90;101400.41;3570970;40;20073;-64
2022/06/20 09:32:39;;;;;;;6.10;2.90;;;;;;;22.08;41.71;101397.25;3567628;40;20057;-64
2022/06/20 09:35:44;;;;;;;6.18;2.55;;;;;;;22.21;43.53;101402.38;3568958;40;20048;-64
2022/06/20 09:38:37;;;;;;;5.28;2.50;;;;;;;22.51;41.24;101394.75;3569238;40;20099;-63
2022/06/20 09:41:29;;;;;;;5.57;2.15;;;;;;;22.96;39.95;101397.34;3571501;40;20158;-64
2022/06/20 09:44:10;;;;;;;2.92;2.20;;;;;;;22.99;38.26;101394.25;3571137;40;20334;-63
2022/06/20 09:47:10;;;;;;;4.45;2.25;;;;;;;22.96;38.78;101391.00;3571655;40;20064;-63
2022/06/20 09:50:20;;;;;;;5.07;2.30;;;;;;;22.58;38.13;101395.84;3569939;40;20052;-63
2022/06/20 09:52:57;;;;;;;3.55;2.05;;;;;;;22.19;36.98;101399.78;3569078;40;20122;-63
2022/06/20 09:55:52;;;;;;;3.63;2.13;;;;;;;22.21;37.79;101402.38;3567495;40;20052;-63
2022/06/20 09:58:38;;;;;;;5.30;2.28;;;;;;;22.57;37.45;101402.34;3566865;40;20538;-64
2022/06/20 10:01:32;;;;;;;8.40;2.70;;;;;;;22.43;39.31;101379.97;3569602;40;20610;-63
2022/06/20 10:04:21;;;;;;;6.60;2.63;;;;;;;22.55;38.38;101387.94;3568263;40;20047;-63
2022/06/20 10:07:22;;;;;;;5.28;2.53;;;;;;;22.73;38.20;101386.00;3568943;40;20064;-63
2022/06/20 10:10:22;;;;;;;6.47;2.60;;;;;;;22.47;38.71;101397.81;3570693;40;20057;-64
2022/06/20 10:13:23;;;;;;;5.85;2.80;;;;;;;22.48;39.48;101396.78;3570518;40;20049;-63
2022/06/20 10:16:17;;;;;;;6.78;2.80;;;;;;;22.53;38.66;101387.25;3553232;40;21859;-64
2022/06/20 10:19:24;;;;;;;7.88;2.80;;;;;;;22.85;38.72;101394.84;3569987;40;20060;-64
2022/06/20 10:21:55;;;;;;;6.78;2.55;;;;;;;22.81;38.54;101399.78;3569501;40;20061;-63
2022/06/20 10:24:52;;;;;;;4.50;2.47;;;;;;;23.09;39.00;101395.03;3570164;40;20298;-64
2022/06/20 10:27:37;;;;;;;6.03;2.45;;;;;;;23.68;38.83;101397.00;3571931;40;20379;-64
2022/06/20 10:30:26;;;;;;;8.85;2.95;;;;;;;23.92;38.00;101415.47;3569342;40;20060;-64
2022/06/20 10:32:55;;;;;;;8.13;2.85;;;;;;;23.82;37.80;101415.63;3570228;40;20052;-64
2022/06/20 10:35:57;;;;;;;10.05;2.70;;;;;;;23.34;39.10;101419.84;3571667;40;20057;-64
2022/06/20 10:38:40;;;;;;;7.40;3.00;;;;;;;22.88;39.44;101422.78;3571065;40;20052;-64
2022/06/20 10:41:13;;;;;;;7.85;2.80;;;;;;;22.76;39.78;101420.47;3572399;40;20063;-64
2022/06/20 10:43:49;;;;;;;7.22;2.70;;;;;;;23.02;40.04;101421.38;3572798;40;20097;-64
2022/06/20 10:46:37;;;;;;;6.65;2.72;;;;;;;23.16;38.27;101429.00;3569146;40;20292;-64
2022/06/20 10:49:49;;;;;;;7.55;2.88;;;;;;;23.31;38.33;101434.75;3571931;40;20052;-64
2022/06/20 10:52:56;;;;;;;4.78;2.33;;;;;;;23.33;36.07;101432.69;3570187;40;20079;-64
2022/06/20 10:55:51;;;;;;;6.25;2.30;;;;;;;23.09;36.69;101443.50;3569545;40;20115;-64
2022/06/20 10:58:59;;;;;;;4.97;2.13;;;;;;;23.01;37.75;101438.00;3568118;40;20055;-64
2022/06/20 11:01:30;;;;;;;5.70;2.22;;;;;;;23.49;36.47;101436.56;3568569;40;20053;-64
2022/06/20 11:04:29;;;;;;;3.97;2.17;;;;;;;23.83;37.75;101440.16;3571954;40;20064;-64
2022/06/20 11:07:33;;;;;;;7.30;2.53;;;;;;;24.44;35.29;101448.22;3570564;40;20048;-64
2022/06/20 11:10:55;;;;;;;6.40;2.45;;;;;;;25.16;34.16;101454.72;3571598;40;20320;-64
2022/06/20 11:13:59;;;;;;;7.30;2.22;;;;;;;25.20;33.25;101453.34;3557015;40;20096;-65
2022/06/20 11:16:31;;;;;;;8.05;2.63;;;;;;;24.75;34.30;101445.63;3570318;40;20383;-65
2022/06/20 11:19:13;;;;;;;10.10;2.80;;;;;;;24.29;36.06;101439.72;3570410;40;20076;-64
2022/06/20 11:22:10;;;;;;;5.93;2.45;;;;;;;24.18;35.37;101415.34;3569003;40;20053;-64
2022/06/20 11:24:50;;;;;;;6.97;2.65;;;;;;;24.06;36.78;101451.38;3573158;40;20079;-64
2022/06/20 11:28:03;;;;;;;7.18;2.58;;;;;;;24.47;36.88;101447.88;3574418;40;20053;-64
2022/06/20 11:30:58;;;;;;;7.73;2.20;;;;;;;25.09;32.93;101450.94;3574669;40;20065;-65
2022/06/20 11:34:08;;;;;;;6.05;2.67;;;;;;;24.83;33.72;101442.00;3575753;40;20045;-65
2022/06/20 11:37:24;;;;;;;6.47;2.70;;;;;;;24.08;35.57;101449.31;3574773;40;20045;-64
2022/06/20 11:40:22;;;;;;;5.20;2.50;;;;;;;23.91;36.17;101443.94;3560446;40;20602;-65
2022/06/20 11:43:50;;;;;;;6.75;2.58;;;;;;;23.59;36.93;101445.50;3575752;40;20079;-65
2022/06/20 11:46:45;;;;;;;7.00;2.83;;;;;;;23.23;37.06;101437.44;3563595;40;20045;-65
2022/06/20 11:49:40;;;;;;;6.63;2.92;;;;;;;23.45;37.02;101436.03;3567123;40;20053;-65
2022/06/20 11:52:38;;;;;;;5.70;2.42;;;;;;;24.26;38.07;101440.94;3572404;40;20045;-65
2022/06/20 11:55:27;;;;;;;9.68;2.92;;;;;;;25.11;34.54;101435.09;3573507;40;20045;-66
2022/06/20 11:58:19;;;;;;;7.15;2.50;;;;;;;25.62;32.16;101440.28;3571846;40;20053;-65
2022/06/20 12:01:11;;;;;;;7.85;2.25;;;;;;;26.06;32.85;101439.75;3571066;40;20057;-65
2022/06/20 12:04:00;;;;;;;5.07;2.40;;;;;;;26.59;31.46;101436.13;3567624;40;20054;-66
2022/06/20 12:06:47;;;;;;;6.78;2.45;;;;;;;27.06;31.97;101432.25;3568941;40;20048;-65
2022/06/20 12:09:39;;;;;;;5.47;2.10;;;;;;;27.05;29.92;101435.19;3564680;40;20060;-65
2022/06/20 12:12:38;;;;;;;4.70;2.08;;;;;;;26.34;30.55;101438.19;3569357;40;20061;-65
2022/06/20 12:15:39;;;;;;;6.43;2.30;;;;;;;26.35;31.02;101448.16;3567410;40;20049;-65
2022/06/20 12:18:37;;;;;;;5.43;2.25;;;;;;;26.66;30.01;101446.44;3566683;40;20603;-66
2022/06/20 12:24:08;;;;;;;6.82;2.25;;;;;;;26.97;31.28;101433.38;3569918;40;20076;-65
2022/06/20 12:26:42;;;;;;;6.43;2.00;;;;;;;26.17;30.94;101431.94;3569364;40;20061;-65
2022/06/20 12:29:19;;;;;;;5.65;2.10;;;;;;;25.77;31.94;101429.41;3567450;40;20045;-65
2022/06/20 12:31:57;;;;;;;6.10;2.15;;;;;;;26.17;31.30;101434.69;3567483;40;20059;-65
2022/06/20 12:35:05;;;;;;;5.28;2.08;;;;;;;25.91;31.66;101436.91;3570991;40;20092;-64
2022/06/20 12:38:08;;;;;;;5.90;2.10;;;;;;;26.53;30.77;101427.75;3568128;40;20071;-63
2022/06/20 12:40:50;;;;;;;7.10;2.25;;;;;;;26.34;29.34;101423.56;3569149;40;20053;-63
2022/06/20 12:43:39;;;;;;;5.85;2.00;;;;;;;25.41;32.05;101429.91;3568913;40;20052;-64
2022/06/20 12:46:32;;;;;;;4.05;2.05;;;;;;;24.93;32.71;101431.72;3569352;40;20305;-63